Harrison, Michigan
Current Conditions -  °F | °C
As of 4:53 PM on Friday 19 Dec 2014 (Local Time) from KHTL Reporting Station
Clear Clear  
Wind Chill: 26°   Ceiling: Unl
Heat Index: 26°   Visibility: 10mi
Dew Point: 19°   Wind: 3mph
Humidity: 75%   Direction: 270°W
Pressure: 30.23"   Gusts: NA
Location:  44.02°N, 84.8°W
Report Text: KHTL 192153Z AUTO 27003KT 10SM CLR M03/M07 A3023 RMK AO2 SLP260 T10331072
Loading
Personal Weather Stations






























Interactive Weather Map New forecast layout! Learn more

10-Day Weather Forecast

Advertisements
Track Severe Weather on mobile